createdAt,value
2022-09-22T00:01:27.131Z,100.00
2022-09-22T00:04:15.398Z,100.00
2022-09-22T00:07:03.242Z,100.00
2022-09-22T00:09:51.843Z,100.00
2022-09-22T00:12:39.668Z,100.00
2022-09-22T00:15:30.267Z,100.00
2022-09-22T00:18:18.617Z,100.00
2022-09-22T00:21:09.382Z,100.00
2022-09-22T00:23:57.107Z,100.00
2022-09-22T00:26:46.553Z,100.00
2022-09-22T00:29:34.235Z,100.00
2022-09-22T00:32:21.543Z,100.00
2022-09-22T00:35:10.272Z,100.00
2022-09-22T00:37:57.947Z,100.00
2022-09-22T00:40:45.397Z,100.00
2022-09-22T00:43:37.687Z,100.00
2022-09-22T00:46:29.561Z,100.00
2022-09-22T00:49:17.341Z,100.00
2022-09-22T00:52:06.090Z,100.00
2022-09-22T00:54:57.914Z,100.00
2022-09-22T00:57:48.980Z,100.00
2022-09-22T01:00:37.861Z,100.00
2022-09-22T01:03:29.880Z,100.00
2022-09-22T01:06:24.376Z,100.00
2022-09-22T01:09:12.290Z,100.00
2022-09-22T01:12:00.692Z,100.00
2022-09-22T01:15:16.723Z,100.00
2022-09-22T01:18:21.655Z,100.00
2022-09-22T01:21:37.040Z,100.00
2022-09-22T01:24:55.015Z,100.00
2022-09-22T01:28:35.133Z,100.00
2022-09-22T01:31:36.363Z,100.00
2022-09-22T01:34:33.541Z,100.00
2022-09-22T01:37:31.771Z,100.00
2022-09-22T01:40:31.160Z,100.00
2022-09-22T01:43:33.828Z,100.00
2022-09-22T01:46:32.842Z,100.00
2022-09-22T01:49:23.835Z,100.00
2022-09-22T01:52:18.520Z,100.00
2022-09-22T01:55:13.265Z,100.00
2022-09-22T01:58:06.739Z,100.00
2022-09-22T02:01:00.569Z,100.00
2022-09-22T02:03:58.406Z,100.00
2022-09-22T02:06:53.660Z,100.00
2022-09-22T02:09:43.692Z,100.00
2022-09-22T02:12:31.614Z,100.00
2022-09-22T02:15:38.864Z,100.00
2022-09-22T02:18:33.572Z,100.00
2022-09-22T02:21:25.744Z,100.00
2022-09-22T02:24:29.721Z,100.00
2022-09-22T02:27:26.798Z,100.00
2022-09-22T02:30:15.973Z,100.00
2022-09-22T02:33:04.546Z,100.00
2022-09-22T02:36:02.968Z,100.00
2022-09-22T02:39:04.840Z,100.00
2022-09-22T02:42:20.835Z,100.00
2022-09-22T02:45:18.317Z,100.00
2022-09-22T02:48:14.272Z,100.00
2022-09-22T02:51:02.735Z,100.00
2022-09-22T02:53:50.408Z,100.00
2022-09-22T02:56:39.084Z,100.00
2022-09-22T02:59:26.505Z,100.00
2022-09-22T03:02:14.410Z,100.00
2022-09-22T03:05:01.930Z,100.00
2022-09-22T03:07:49.590Z,100.00
2022-09-22T03:10:37.454Z,100.00
2022-09-22T03:13:26.100Z,100.00
2022-09-22T03:16:13.578Z,100.00
2022-09-22T03:19:01.279Z,100.00
2022-09-22T03:21:49.065Z,100.00
2022-09-22T03:24:36.480Z,100.00
2022-09-22T03:27:24.308Z,100.00
2022-09-22T03:30:14.453Z,100.00
2022-09-22T03:33:01.886Z,100.00
2022-09-22T03:35:49.382Z,100.00
2022-09-22T03:38:36.751Z,100.00
2022-09-22T03:41:24.155Z,100.00
2022-09-22T03:44:11.496Z,100.00
2022-09-22T03:47:00.367Z,100.00
2022-09-22T03:49:47.859Z,100.00
2022-09-22T03:52:35.321Z,100.00
2022-09-22T03:55:23.845Z,100.00
2022-09-22T03:58:11.405Z,100.00
2022-09-22T04:00:58.978Z,100.00
2022-09-22T04:03:47.773Z,100.00
2022-09-22T04:06:36.905Z,100.00
2022-09-22T04:09:24.397Z,100.00
2022-09-22T04:12:11.794Z,100.00
2022-09-22T04:14:59.208Z,100.00
2022-09-22T04:17:47.094Z,100.00
2022-09-22T04:20:40.982Z,100.00
2022-09-22T04:23:28.677Z,100.00
2022-09-22T04:26:16.275Z,100.00
2022-09-22T04:29:03.812Z,100.00
2022-09-22T04:31:51.262Z,100.00
2022-09-22T04:34:38.715Z,100.00
2022-09-22T04:37:27.693Z,100.00
2022-09-22T04:40:15.586Z,100.00
2022-09-22T04:43:03.214Z,100.00
2022-09-22T04:45:50.811Z,100.00
2022-09-22T04:48:38.546Z,100.00
2022-09-22T04:51:26.081Z,100.00
2022-09-22T04:54:15.129Z,100.00
2022-09-22T04:57:02.880Z,100.00
2022-09-22T04:59:50.513Z,100.00
2022-09-22T05:02:38.206Z,100.00
2022-09-22T05:05:25.786Z,100.00
2022-09-22T05:08:13.724Z,100.00
2022-09-22T05:11:15.631Z,100.00
2022-09-22T05:14:03.450Z,100.00
2022-09-22T05:16:54.313Z,100.00
2022-09-22T05:19:41.753Z,100.00
2022-09-22T05:22:29.045Z,100.00
2022-09-22T05:25:19.645Z,100.00
2022-09-22T05:28:08.721Z,100.00
2022-09-22T05:30:56.231Z,100.00
2022-09-22T05:33:44.174Z,100.00
2022-09-22T05:36:32.000Z,100.00
2022-09-22T05:39:19.914Z,100.00
2022-09-22T05:42:10.878Z,100.00
2022-09-22T05:44:59.862Z,100.00
2022-09-22T05:47:48.183Z,100.00
2022-09-22T05:50:35.899Z,100.00
2022-09-22T05:53:23.993Z,100.00
2022-09-22T05:56:12.650Z,100.00
2022-09-22T05:59:00.996Z,100.00
2022-09-22T06:01:50.099Z,100.00
2022-09-22T06:04:37.779Z,100.00
2022-09-22T06:07:25.606Z,100.00
2022-09-22T06:10:13.067Z,100.00
2022-09-22T06:13:00.970Z,100.00
2022-09-22T06:15:49.001Z,100.00
2022-09-22T06:18:38.069Z,100.00
2022-09-22T06:21:25.907Z,100.00
2022-09-22T06:24:13.940Z,100.00
2022-09-22T06:27:01.550Z,100.00
2022-09-22T06:29:49.035Z,100.00
2022-09-22T06:32:39.232Z,100.00
2022-09-22T06:35:31.104Z,100.00
2022-09-22T06:38:18.485Z,100.00
2022-09-22T06:41:06.661Z,100.00
2022-09-22T06:43:56.102Z,100.00
2022-09-22T06:46:43.814Z,100.00
2022-09-22T06:49:31.436Z,100.00
2022-09-22T06:52:20.188Z,100.00
2022-09-22T06:55:10.692Z,100.00
2022-09-22T06:57:59.829Z,100.00
2022-09-22T07:00:47.722Z,100.00
2022-09-22T07:03:42.616Z,100.00
2022-09-22T07:06:30.210Z,100.00
2022-09-22T07:09:18.916Z,100.00
2022-09-22T07:12:20.037Z,100.00
2022-09-22T07:15:08.863Z,100.00
2022-09-22T07:17:56.280Z,100.00
2022-09-22T07:20:45.679Z,100.00
2022-09-22T07:23:36.532Z,100.00
2022-09-22T07:26:29.764Z,100.00
2022-09-22T07:29:17.750Z,100.00
2022-09-22T07:32:06.337Z,100.00
2022-09-22T07:34:53.757Z,100.00
2022-09-22T07:37:41.851Z,100.00
2022-09-22T07:40:29.693Z,100.00
2022-09-22T07:43:18.896Z,100.00
2022-09-22T07:46:07.726Z,100.00
2022-09-22T07:48:55.400Z,100.00
2022-09-22T07:51:43.733Z,100.00
2022-09-22T07:54:34.053Z,100.00
2022-09-22T07:57:21.694Z,100.00
2022-09-22T08:00:13.197Z,100.00
2022-09-22T08:03:01.258Z,100.00
2022-09-22T08:05:49.675Z,100.00
2022-09-22T08:08:42.136Z,100.00
2022-09-22T08:11:30.944Z,100.00
2022-09-22T08:14:21.398Z,100.00
2022-09-22T08:17:12.096Z,100.00
2022-09-22T08:20:01.380Z,100.00
2022-09-22T08:22:53.605Z,100.00
2022-09-22T08:25:40.944Z,100.00
2022-09-22T08:28:28.604Z,100.00
2022-09-22T08:31:19.942Z,100.00
2022-09-22T08:34:10.457Z,100.00
2022-09-22T08:36:57.998Z,100.00
2022-09-22T08:39:45.537Z,100.00
2022-09-22T08:42:36.252Z,100.00
2022-09-22T08:45:32.398Z,100.00
2022-09-22T08:48:44.760Z,100.00
2022-09-22T08:51:55.805Z,100.00
2022-09-22T08:54:45.196Z,100.00
2022-09-22T08:58:01.876Z,100.00
2022-09-22T09:01:00.789Z,100.00
2022-09-22T09:04:11.122Z,100.00
2022-09-22T09:07:12.687Z,100.00
2022-09-22T09:10:18.143Z,100.00
2022-09-22T09:13:27.875Z,100.00
2022-09-22T09:16:37.799Z,100.00
2022-09-22T09:19:37.749Z,100.00
2022-09-22T09:22:32.839Z,100.00
2022-09-22T09:25:28.283Z,100.00
2022-09-22T09:28:26.859Z,100.00
2022-09-22T09:31:27.420Z,100.00
2022-09-22T09:34:21.986Z,100.00
2022-09-22T09:37:17.110Z,100.00
2022-09-22T09:40:15.307Z,100.00
2022-09-22T09:43:07.076Z,100.00
2022-09-22T09:46:11.663Z,100.00
2022-09-22T09:49:09.901Z,100.00
2022-09-22T09:52:02.793Z,100.00
2022-09-22T09:54:50.841Z,100.00
2022-09-22T09:58:04.262Z,100.00
2022-09-22T10:00:57.806Z,100.00
2022-09-22T10:03:54.669Z,100.00
2022-09-22T10:06:42.843Z,100.00
2022-09-22T10:09:31.153Z,99.31
2022-09-22T10:12:25.159Z,100.00
2022-09-22T10:15:24.971Z,100.00
2022-09-22T10:18:33.884Z,100.00
2022-09-22T10:21:23.817Z,96.16
2022-09-22T10:24:30.719Z,100.00
2022-09-22T10:27:27.521Z,100.00
2022-09-22T10:30:27.584Z,100.00
2022-09-22T10:33:19.269Z,88.08
2022-09-22T10:36:11.845Z,100.00
2022-09-22T10:39:01.044Z,91.43
2022-09-22T10:41:52.949Z,94.21
2022-09-22T10:44:45.314Z,94.21
2022-09-22T10:47:57.769Z,89.90
2022-09-22T10:51:01.193Z,82.87
2022-09-22T10:54:09.825Z,90.25
2022-09-22T10:57:09.257Z,77.57
2022-09-22T11:00:12.297Z,77.42
2022-09-22T11:03:43.480Z,72.55
2022-09-22T11:07:06.928Z,70.15
2022-09-22T11:10:17.521Z,66.24
2022-09-22T11:13:17.549Z,65.52
2022-09-22T11:16:29.957Z,64.77
2022-09-22T11:19:50.590Z,63.43
2022-09-22T11:22:58.976Z,62.67
2022-09-22T11:25:58.622Z,61.63
2022-09-22T11:29:01.241Z,59.30
2022-09-22T11:31:57.132Z,60.46
2022-09-22T11:35:09.377Z,60.43
2022-09-22T11:38:13.106Z,60.71
2022-09-22T11:41:25.894Z,58.27
2022-09-22T11:44:41.818Z,59.86
2022-09-22T11:47:49.240Z,59.28
2022-09-22T11:51:04.485Z,60.35
2022-09-22T11:54:20.367Z,55.85
2022-09-22T11:57:16.659Z,56.28
2022-09-22T12:00:09.639Z,52.41
2022-09-22T12:03:05.982Z,60.40
2022-09-22T12:09:20.951Z,58.97
2022-09-22T12:12:16.181Z,59.48
2022-09-22T12:15:23.939Z,55.45
2022-09-22T12:18:22.656Z,56.11
2022-09-22T12:21:29.969Z,58.64
2022-09-22T12:24:20.697Z,61.16
2022-09-22T12:27:21.139Z,56.96
2022-09-22T12:30:23.170Z,59.44
2022-09-22T12:33:34.865Z,57.21
2022-09-22T12:36:33.040Z,49.05
2022-09-22T12:39:25.419Z,55.53
2022-09-22T12:42:23.914Z,53.44
2022-09-22T12:45:30.129Z,54.58
2022-09-22T12:48:23.699Z,49.44
2022-09-22T12:51:36.294Z,53.96
2022-09-22T12:54:51.427Z,46.37
2022-09-22T12:57:53.062Z,55.19
2022-09-22T13:00:43.337Z,51.76
2022-09-22T13:04:11.291Z,58.76
2022-09-22T13:07:01.069Z,54.30
2022-09-22T13:10:11.035Z,51.60
2022-09-22T13:13:54.473Z,55.34
2022-09-22T13:16:42.634Z,52.38
2022-09-22T13:19:31.721Z,45.98
2022-09-22T13:22:23.544Z,51.52
2022-09-22T13:25:27.100Z,53.03
2022-09-22T13:28:28.754Z,47.45
2022-09-22T13:31:18.272Z,48.26
2022-09-22T13:34:21.361Z,44.49
2022-09-22T13:37:16.852Z,48.35
2022-09-22T13:40:04.890Z,52.43
2022-09-22T13:42:56.848Z,51.38
2022-09-22T13:45:46.944Z,51.56
2022-09-22T13:48:39.042Z,49.83
2022-09-22T13:51:27.794Z,51.14
2022-09-22T13:54:23.458Z,52.32
2022-09-22T13:57:23.173Z,53.98
2022-09-22T14:00:26.375Z,52.70
2022-09-22T14:03:22.317Z,55.13
2022-09-22T14:06:15.278Z,53.80
2022-09-22T14:09:10.174Z,54.11
2022-09-22T14:11:59.526Z,53.72
2022-09-22T14:14:47.057Z,54.60
2022-09-22T14:17:36.724Z,47.55
2022-09-22T14:20:24.797Z,52.74
2022-09-22T14:23:21.706Z,50.86
2022-09-22T14:26:33.276Z,49.22
2022-09-22T14:29:26.419Z,50.66
2022-09-22T14:32:25.346Z,48.63
2022-09-22T14:35:28.112Z,49.80
2022-09-22T14:38:23.971Z,45.20
2022-09-22T14:41:25.053Z,50.38
2022-09-22T14:44:44.941Z,50.97
2022-09-22T14:47:39.294Z,55.93
2022-09-22T14:50:42.714Z,50.68
2022-09-22T14:53:35.382Z,48.05
2022-09-22T14:56:28.885Z,48.95
2022-09-22T14:59:36.729Z,51.24
2022-09-22T15:02:36.156Z,53.49
2022-09-22T15:05:30.408Z,45.59
2022-09-22T15:08:27.800Z,45.32
2022-09-22T15:11:16.360Z,44.36
2022-09-22T15:14:44.111Z,45.13
2022-09-22T15:17:57.953Z,45.48
2022-09-22T15:20:49.679Z,46.10
2022-09-22T15:23:42.569Z,45.70
2022-09-22T15:26:32.941Z,44.40
2022-09-22T15:29:20.609Z,50.60
2022-09-22T15:32:08.709Z,51.97
2022-09-22T15:34:58.104Z,46.18
2022-09-22T15:37:48.269Z,46.78
2022-09-22T15:40:37.747Z,49.35
2022-09-22T15:43:30.809Z,49.69
2022-09-22T15:46:33.539Z,50.26
2022-09-22T15:49:26.581Z,50.18
2022-09-22T15:52:13.920Z,51.29
2022-09-22T15:55:01.777Z,52.67
2022-09-22T15:58:00.764Z,47.22
2022-09-22T16:00:49.270Z,50.12
2022-09-22T16:03:41.422Z,51.45
2022-09-22T16:06:29.512Z,49.09
2022-09-22T16:09:19.171Z,54.10
2022-09-22T16:12:08.467Z,53.48
2022-09-22T16:14:59.772Z,56.10
2022-09-22T16:17:47.737Z,52.33
2022-09-22T16:20:37.823Z,56.71
2022-09-22T16:23:25.508Z,55.38
2022-09-22T16:26:12.884Z,57.66
2022-09-22T16:29:01.758Z,58.95
2022-09-22T16:31:51.246Z,59.18
2022-09-22T16:34:38.593Z,61.25
2022-09-22T16:37:29.213Z,61.37
2022-09-22T16:40:17.932Z,63.30
2022-09-22T16:43:07.474Z,64.65
2022-09-22T16:46:12.594Z,65.69
2022-09-22T16:49:06.121Z,67.28
2022-09-22T16:51:54.258Z,68.26
2022-09-22T16:54:41.867Z,69.55
2022-09-22T16:57:29.525Z,71.71
2022-09-22T17:00:17.748Z,72.30
2022-09-22T17:03:05.505Z,74.78
2022-09-22T17:06:05.532Z,76.62
2022-09-22T17:08:54.961Z,78.37
2022-09-22T17:11:45.519Z,80.89
2022-09-22T17:14:33.029Z,82.10
2022-09-22T17:17:20.839Z,82.80
2022-09-22T17:20:09.980Z,85.46
2022-09-22T17:22:59.347Z,87.97
2022-09-22T17:25:47.947Z,89.79
2022-09-22T17:28:36.262Z,90.70
2022-09-22T17:31:24.567Z,93.04
2022-09-22T17:34:13.067Z,94.73
2022-09-22T17:37:01.721Z,95.40
2022-09-22T17:39:50.914Z,97.03
2022-09-22T17:42:38.455Z,98.63
2022-09-22T17:45:26.090Z,100.00
2022-09-22T17:48:31.256Z,100.00
2022-09-22T17:51:47.485Z,100.00
2022-09-22T17:54:55.907Z,100.00
2022-09-22T17:57:46.564Z,100.00
2022-09-22T18:00:35.920Z,100.00
2022-09-22T18:03:23.577Z,100.00
2022-09-22T18:06:14.598Z,100.00
2022-09-22T18:09:02.187Z,100.00
2022-09-22T18:11:49.852Z,100.00
2022-09-22T18:14:43.983Z,100.00
2022-09-22T18:17:36.346Z,100.00
2022-09-22T18:20:24.030Z,100.00
2022-09-22T18:23:12.382Z,100.00
2022-09-22T18:26:01.813Z,100.00
2022-09-22T18:28:54.024Z,100.00
2022-09-22T18:31:43.191Z,100.00
2022-09-22T18:38:57.373Z,100.00
2022-09-22T18:41:45.371Z,100.00
2022-09-22T18:44:34.601Z,100.00
2022-09-22T18:47:24.991Z,100.00
2022-09-22T18:50:13.799Z,100.00
2022-09-22T18:53:01.914Z,100.00
2022-09-22T18:55:51.078Z,100.00
2022-09-22T18:58:39.035Z,100.00
2022-09-22T19:01:26.799Z,100.00
2022-09-22T19:04:18.290Z,100.00
2022-09-22T19:07:23.982Z,100.00
2022-09-22T19:10:13.574Z,100.00
2022-09-22T19:13:02.113Z,100.00
2022-09-22T19:15:55.054Z,100.00
2022-09-22T19:18:45.262Z,100.00
2022-09-22T19:21:38.557Z,100.00
2022-09-22T19:24:26.488Z,100.00
2022-09-22T19:27:18.632Z,100.00
2022-09-22T19:30:07.798Z,100.00
2022-09-22T19:32:55.971Z,100.00
2022-09-22T19:35:43.976Z,100.00
2022-09-22T19:38:32.934Z,100.00
2022-09-22T19:41:20.959Z,100.00
2022-09-22T19:44:09.359Z,100.00
2022-09-22T19:46:57.032Z,100.00
2022-09-22T19:49:44.477Z,100.00
2022-09-22T19:52:32.379Z,100.00
2022-09-22T19:55:21.995Z,100.00
2022-09-22T19:58:09.760Z,100.00
2022-09-22T20:00:57.397Z,100.00
2022-09-22T20:03:45.030Z,100.00
2022-09-22T20:06:33.720Z,100.00
2022-09-22T20:09:21.761Z,100.00
2022-09-22T20:12:10.794Z,100.00
2022-09-22T20:14:58.270Z,100.00
2022-09-22T20:17:47.814Z,100.00
2022-09-22T20:20:37.492Z,100.00
2022-09-22T20:23:25.945Z,100.00
2022-09-22T20:26:13.734Z,100.00
2022-09-22T20:29:03.062Z,100.00
2022-09-22T20:31:50.436Z,100.00
2022-09-22T20:34:38.054Z,100.00
2022-09-22T20:37:25.989Z,100.00
2022-09-22T20:40:16.252Z,100.00
2022-09-22T20:43:05.039Z,100.00
2022-09-22T20:46:02.957Z,100.00
2022-09-22T20:48:55.301Z,100.00
2022-09-22T20:51:43.518Z,100.00
2022-09-22T20:54:31.455Z,100.00
2022-09-22T20:57:19.279Z,100.00
2022-09-22T21:00:09.414Z,100.00
2022-09-22T21:03:00.945Z,100.00
2022-09-22T21:05:49.350Z,100.00
2022-09-22T21:08:57.832Z,100.00
2022-09-22T21:11:45.634Z,100.00
2022-09-22T21:14:34.082Z,100.00
2022-09-22T21:17:21.937Z,100.00
2022-09-22T21:20:11.286Z,100.00
2022-09-22T21:22:58.782Z,100.00
2022-09-22T21:25:56.469Z,100.00
2022-09-22T21:28:46.036Z,100.00
2022-09-22T21:31:34.787Z,100.00
2022-09-22T21:34:23.102Z,100.00
2022-09-22T21:37:11.992Z,100.00
2022-09-22T21:39:59.805Z,100.00
2022-09-22T21:42:47.672Z,100.00
2022-09-22T21:45:35.123Z,100.00
2022-09-22T21:48:22.827Z,100.00
2022-09-22T21:51:13.924Z,100.00
2022-09-22T21:54:04.872Z,100.00
2022-09-22T21:56:53.301Z,100.00
2022-09-22T21:59:40.910Z,100.00
2022-09-22T22:02:48.314Z,100.00
2022-09-22T22:05:36.211Z,100.00
2022-09-22T22:08:23.774Z,100.00
2022-09-22T22:11:16.068Z,100.00
2022-09-22T22:14:06.920Z,100.00
2022-09-22T22:16:56.467Z,100.00
2022-09-22T22:19:43.771Z,100.00
2022-09-22T22:22:31.840Z,100.00
2022-09-22T22:25:19.930Z,100.00
2022-09-22T22:28:18.134Z,100.00
2022-09-22T22:31:09.902Z,100.00
2022-09-22T22:33:57.386Z,100.00
2022-09-22T22:36:45.419Z,100.00
2022-09-22T22:39:33.538Z,100.00
2022-09-22T22:42:21.330Z,100.00
2022-09-22T22:45:12.088Z,100.00
2022-09-22T22:48:02.327Z,100.00
2022-09-22T22:50:49.875Z,100.00
2022-09-22T22:53:37.688Z,100.00
2022-09-22T22:56:29.684Z,100.00
2022-09-22T22:59:18.153Z,100.00
2022-09-22T23:02:07.164Z,100.00
2022-09-22T23:04:54.610Z,100.00
2022-09-22T23:07:42.345Z,100.00
2022-09-22T23:10:31.983Z,100.00
2022-09-22T23:13:19.278Z,100.00
2022-09-22T23:16:11.166Z,100.00
2022-09-22T23:19:02.548Z,100.00
2022-09-22T23:21:51.162Z,100.00
2022-09-22T23:24:39.546Z,100.00
2022-09-22T23:27:28.365Z,100.00
2022-09-22T23:30:16.891Z,100.00
2022-09-22T23:33:06.567Z,100.00
2022-09-22T23:36:01.236Z,100.00
2022-09-22T23:38:53.830Z,100.00
2022-09-22T23:41:44.238Z,100.00
2022-09-22T23:44:31.941Z,100.00
2022-09-22T23:47:20.938Z,100.00
2022-09-22T23:50:11.006Z,100.00
2022-09-22T23:53:00.275Z,100.00
2022-09-22T23:55:47.848Z,100.00
2022-09-22T23:58:37.143Z,100.00
